createdAt,value
2022-10-06T00:00:06.044Z,18.81
2022-10-06T00:00:16.017Z,18.81
2022-10-06T00:00:26.014Z,18.81
2022-10-06T00:00:36.017Z,18.80
2022-10-06T00:00:46.020Z,18.83
2022-10-06T00:00:56.018Z,18.80
2022-10-06T00:01:06.094Z,18.81
2022-10-06T00:01:16.078Z,18.81
2022-10-06T00:01:26.087Z,18.80
2022-10-06T00:01:36.058Z,18.81
2022-10-06T00:01:46.072Z,18.81
2022-10-06T00:01:56.024Z,18.80
2022-10-06T00:02:06.025Z,18.83
2022-10-06T00:02:16.151Z,18.81
2022-10-06T00:02:26.097Z,18.81
2022-10-06T00:02:36.108Z,18.80
2022-10-06T00:02:46.100Z,18.78
2022-10-06T00:02:56.107Z,18.80
2022-10-06T00:03:06.042Z,18.81
2022-10-06T00:03:16.031Z,18.81
2022-10-06T00:03:26.031Z,18.81
2022-10-06T00:03:36.037Z,18.80
2022-10-06T00:03:46.038Z,18.80
2022-10-06T00:03:56.036Z,18.80
2022-10-06T00:04:06.039Z,18.80
2022-10-06T00:04:16.031Z,18.80
2022-10-06T00:04:26.032Z,18.78
2022-10-06T00:04:36.046Z,18.80
2022-10-06T00:04:46.032Z,18.78
2022-10-06T00:04:56.034Z,18.80
2022-10-06T00:05:06.034Z,18.80
2022-10-06T00:05:16.036Z,18.80
2022-10-06T00:05:26.035Z,18.78
2022-10-06T00:05:36.038Z,18.80
2022-10-06T00:05:46.039Z,18.80
2022-10-06T00:05:56.042Z,18.78
2022-10-06T00:06:06.040Z,18.80
2022-10-06T00:06:16.042Z,18.78
2022-10-06T00:06:26.042Z,18.78
2022-10-06T00:06:36.039Z,18.78
2022-10-06T00:06:46.038Z,18.80
2022-10-06T00:06:56.039Z,18.78
2022-10-06T00:07:06.087Z,18.80
2022-10-06T00:07:16.049Z,18.78
2022-10-06T00:07:26.048Z,18.78
2022-10-06T00:07:36.045Z,18.80
2022-10-06T00:07:46.044Z,18.78
2022-10-06T00:07:56.049Z,18.78
2022-10-06T00:08:09.976Z,18.78
2022-10-06T00:08:16.047Z,18.80
2022-10-06T00:08:26.399Z,18.78
2022-10-06T00:08:36.052Z,18.80
2022-10-06T00:08:46.060Z,18.78
2022-10-06T00:08:56.050Z,18.78
2022-10-06T00:09:06.050Z,18.78
2022-10-06T00:09:16.055Z,18.80
2022-10-06T00:09:26.052Z,18.80
2022-10-06T00:09:36.055Z,18.80
2022-10-06T00:09:46.053Z,18.80
2022-10-06T00:09:56.057Z,18.77
2022-10-06T00:10:06.060Z,18.78
2022-10-06T00:10:16.058Z,18.80
2022-10-06T00:10:26.057Z,18.78
2022-10-06T00:10:36.060Z,18.78
2022-10-06T00:10:46.059Z,18.80
2022-10-06T00:10:56.087Z,18.78
2022-10-06T00:11:06.062Z,18.78
2022-10-06T00:11:16.066Z,18.80
2022-10-06T00:11:26.060Z,18.78
2022-10-06T00:11:36.065Z,18.78
2022-10-06T00:11:46.062Z,18.78
2022-10-06T00:11:56.090Z,18.80
2022-10-06T00:12:06.064Z,18.78
2022-10-06T00:12:16.068Z,18.78
2022-10-06T00:12:26.070Z,18.78
2022-10-06T00:12:36.068Z,18.80
2022-10-06T00:12:46.071Z,18.80
2022-10-06T00:12:56.067Z,18.78
2022-10-06T00:13:06.068Z,18.78
2022-10-06T00:13:16.071Z,18.78
2022-10-06T00:13:26.072Z,18.80
2022-10-06T00:13:36.072Z,18.78
2022-10-06T00:13:46.093Z,18.78
2022-10-06T00:13:56.071Z,18.78
2022-10-06T00:14:06.073Z,18.80
2022-10-06T00:14:16.073Z,18.80
2022-10-06T00:14:26.078Z,18.78
2022-10-06T00:14:36.075Z,18.78
2022-10-06T00:14:46.080Z,18.80
2022-10-06T00:14:56.077Z,18.80
2022-10-06T00:15:06.079Z,18.80
2022-10-06T00:15:16.077Z,18.78
2022-10-06T00:15:26.078Z,18.77
2022-10-06T00:15:36.113Z,18.78
2022-10-06T00:15:46.153Z,18.78
2022-10-06T00:15:56.177Z,18.80
2022-10-06T00:16:06.139Z,18.78
2022-10-06T00:16:16.125Z,18.80
2022-10-06T00:16:26.089Z,18.80
2022-10-06T00:16:36.080Z,18.81
2022-10-06T00:16:46.083Z,18.80
2022-10-06T00:16:56.091Z,18.80
2022-10-06T00:17:06.096Z,18.80
2022-10-06T00:17:16.086Z,18.81
2022-10-06T00:17:26.093Z,18.81
2022-10-06T00:17:36.097Z,18.78
2022-10-06T00:17:46.091Z,18.78
2022-10-06T00:17:56.090Z,18.78
2022-10-06T00:18:06.093Z,18.77
2022-10-06T00:18:16.087Z,18.78
2022-10-06T00:18:26.413Z,18.78
2022-10-06T00:18:36.091Z,18.78
2022-10-06T00:18:46.095Z,18.80
2022-10-06T00:18:56.091Z,18.80
2022-10-06T00:19:06.206Z,18.78
2022-10-06T00:19:16.101Z,18.78
2022-10-06T00:19:26.088Z,18.80
2022-10-06T00:19:36.102Z,18.78
2022-10-06T00:19:46.098Z,18.80
2022-10-06T00:19:56.117Z,18.80
2022-10-06T00:20:06.095Z,18.80
2022-10-06T00:20:16.098Z,18.78
2022-10-06T00:20:26.105Z,18.78
2022-10-06T00:20:36.103Z,18.78
2022-10-06T00:20:46.131Z,18.78
2022-10-06T00:20:56.101Z,18.80
2022-10-06T00:21:06.102Z,18.80
2022-10-06T00:21:16.102Z,18.78
2022-10-06T00:21:26.106Z,18.80
2022-10-06T00:21:36.110Z,18.78
2022-10-06T00:21:46.110Z,18.78
2022-10-06T00:21:56.104Z,18.78
2022-10-06T00:22:06.128Z,18.78
2022-10-06T00:22:16.107Z,18.80
2022-10-06T00:22:26.110Z,18.78
2022-10-06T00:22:36.110Z,18.80
2022-10-06T00:22:46.106Z,18.78
2022-10-06T00:22:56.109Z,18.78
2022-10-06T00:23:06.111Z,18.78
2022-10-06T00:23:16.109Z,18.80
2022-10-06T00:23:26.113Z,18.80
2022-10-06T00:23:36.118Z,18.80
2022-10-06T00:23:46.113Z,18.80
2022-10-06T00:23:56.116Z,18.77
2022-10-06T00:24:06.119Z,18.78
2022-10-06T00:24:16.117Z,18.80
2022-10-06T00:24:26.119Z,18.80
2022-10-06T00:24:36.121Z,18.80
2022-10-06T00:24:46.118Z,18.78
2022-10-06T00:24:56.120Z,18.80
2022-10-06T00:25:06.119Z,18.78
2022-10-06T00:25:16.121Z,18.77
2022-10-06T00:25:26.123Z,18.78
2022-10-06T00:25:36.121Z,18.78
2022-10-06T00:25:46.123Z,18.78
2022-10-06T00:25:56.127Z,18.78
2022-10-06T00:26:06.126Z,18.78
2022-10-06T00:26:16.126Z,18.78
2022-10-06T00:26:26.128Z,18.77
2022-10-06T00:26:36.128Z,18.80
2022-10-06T00:26:46.128Z,18.78
2022-10-06T00:26:56.138Z,18.77
2022-10-06T00:27:06.142Z,18.77
2022-10-06T00:27:16.129Z,18.78
2022-10-06T00:27:26.130Z,18.78
2022-10-06T00:27:36.131Z,18.78
2022-10-06T00:27:46.131Z,18.78
2022-10-06T00:27:56.212Z,18.78
2022-10-06T00:28:06.169Z,18.78
2022-10-06T00:28:16.195Z,18.78
2022-10-06T00:28:26.570Z,18.77
2022-10-06T00:28:36.228Z,18.77
2022-10-06T00:28:46.206Z,18.78
2022-10-06T00:28:56.137Z,18.78
2022-10-06T00:29:06.143Z,18.78
2022-10-06T00:29:16.138Z,18.78
2022-10-06T00:29:26.141Z,18.78
2022-10-06T00:29:36.139Z,18.78
2022-10-06T00:29:46.125Z,18.78
2022-10-06T00:29:56.142Z,18.77
2022-10-06T00:30:06.141Z,18.80
2022-10-06T00:30:16.145Z,18.77
2022-10-06T00:30:26.145Z,18.78
2022-10-06T00:30:36.132Z,18.78
2022-10-06T00:30:46.196Z,18.80
2022-10-06T00:30:56.291Z,18.78
2022-10-06T00:31:06.191Z,18.78
2022-10-06T00:31:16.206Z,18.77
2022-10-06T00:31:26.180Z,18.78
2022-10-06T00:31:36.227Z,18.78
2022-10-06T00:31:46.151Z,18.78
2022-10-06T00:31:56.149Z,18.78
2022-10-06T00:32:06.181Z,18.78
2022-10-06T00:32:16.154Z,18.80
2022-10-06T00:32:26.151Z,18.78
2022-10-06T00:32:36.148Z,18.78
2022-10-06T00:32:46.160Z,18.78
2022-10-06T00:32:56.153Z,18.78
2022-10-06T00:33:06.154Z,18.77
2022-10-06T00:33:16.162Z,18.78
2022-10-06T00:33:26.157Z,18.80
2022-10-06T00:33:36.187Z,18.78
2022-10-06T00:33:46.157Z,18.78
2022-10-06T00:33:56.162Z,18.77
2022-10-06T00:34:06.156Z,18.78
2022-10-06T00:34:16.161Z,18.78
2022-10-06T00:34:26.160Z,18.80
2022-10-06T00:34:36.167Z,18.80
2022-10-06T00:34:46.167Z,18.78
2022-10-06T00:34:56.160Z,18.80
2022-10-06T00:35:06.166Z,18.78
2022-10-06T00:35:16.168Z,18.80
2022-10-06T00:35:26.151Z,18.80
2022-10-06T00:35:36.167Z,18.78
2022-10-06T00:35:46.172Z,18.80
2022-10-06T00:35:56.194Z,18.80
2022-10-06T00:36:06.169Z,18.80
2022-10-06T00:36:16.167Z,18.81
2022-10-06T00:36:26.166Z,18.78
2022-10-06T00:36:36.169Z,18.78
2022-10-06T00:36:46.170Z,18.80
2022-10-06T00:36:56.169Z,18.80
2022-10-06T00:37:06.174Z,18.81
2022-10-06T00:37:16.179Z,18.80
2022-10-06T00:37:26.179Z,18.81
2022-10-06T00:37:36.173Z,18.80
2022-10-06T00:37:46.174Z,18.81
2022-10-06T00:37:56.180Z,18.81
2022-10-06T00:38:06.178Z,18.80
2022-10-06T00:38:16.177Z,18.80
2022-10-06T00:38:26.573Z,18.80
2022-10-06T00:38:36.163Z,18.80
2022-10-06T00:38:46.179Z,18.80
2022-10-06T00:38:56.181Z,18.81
2022-10-06T00:39:06.183Z,18.81
2022-10-06T00:39:16.184Z,18.80
2022-10-06T00:39:26.184Z,18.81
2022-10-06T00:39:36.184Z,18.81
2022-10-06T00:39:46.182Z,18.80
2022-10-06T00:39:56.948Z,18.81
2022-10-06T00:40:06.187Z,18.81
2022-10-06T00:40:16.185Z,18.81
2022-10-06T00:40:26.185Z,18.80
2022-10-06T00:40:36.192Z,18.80
2022-10-06T00:40:46.189Z,18.80
2022-10-06T00:40:56.188Z,18.81
2022-10-06T00:41:06.204Z,18.80
2022-10-06T00:41:16.198Z,18.81
2022-10-06T00:41:26.191Z,18.80
2022-10-06T00:41:36.189Z,18.81
2022-10-06T00:41:46.196Z,18.81
2022-10-06T00:41:56.192Z,18.80
2022-10-06T00:42:06.206Z,18.81
2022-10-06T00:42:16.194Z,18.81
2022-10-06T00:42:26.198Z,18.81
2022-10-06T00:42:36.195Z,18.81
2022-10-06T00:42:46.215Z,18.81
2022-10-06T00:42:56.198Z,18.80
2022-10-06T00:43:06.200Z,18.81
2022-10-06T00:43:16.198Z,18.80
2022-10-06T00:43:26.219Z,18.81
2022-10-06T00:43:36.200Z,18.80
2022-10-06T00:43:46.199Z,18.83
2022-10-06T00:43:56.203Z,18.81
2022-10-06T00:44:06.202Z,18.81
2022-10-06T00:44:16.202Z,18.80
2022-10-06T00:44:26.201Z,18.81
2022-10-06T00:44:36.202Z,18.81
2022-10-06T00:44:46.201Z,18.83
2022-10-06T00:44:56.206Z,18.80
2022-10-06T00:45:06.209Z,18.81
2022-10-06T00:45:16.205Z,18.81
2022-10-06T00:45:26.205Z,18.83
2022-10-06T00:45:36.208Z,18.81
2022-10-06T00:45:46.207Z,18.83
2022-10-06T00:45:56.282Z,18.83
2022-10-06T00:46:06.244Z,18.83
2022-10-06T00:46:16.245Z,18.81
2022-10-06T00:46:26.251Z,18.83
2022-10-06T00:46:36.240Z,18.81
2022-10-06T00:46:46.367Z,18.83
2022-10-06T00:46:56.212Z,18.83
2022-10-06T00:47:06.224Z,18.83
2022-10-06T00:47:16.214Z,18.83
2022-10-06T00:47:26.241Z,18.83
2022-10-06T00:47:36.215Z,18.85
2022-10-06T00:47:46.213Z,18.83
2022-10-06T00:47:56.235Z,18.83
2022-10-06T00:48:06.219Z,18.83
2022-10-06T00:48:16.224Z,18.83
2022-10-06T00:48:26.597Z,18.83
2022-10-06T00:48:36.223Z,18.83
2022-10-06T00:48:46.228Z,18.83
2022-10-06T00:48:56.220Z,18.81
2022-10-06T00:49:06.223Z,18.81
2022-10-06T00:49:16.224Z,18.85
2022-10-06T00:49:26.228Z,18.81
2022-10-06T00:49:36.226Z,18.83
2022-10-06T00:49:46.220Z,18.85
2022-10-06T00:49:56.221Z,18.85
2022-10-06T00:50:06.226Z,18.83
2022-10-06T00:50:16.223Z,18.83
2022-10-06T00:50:26.232Z,18.85
2022-10-06T00:50:36.226Z,18.83
2022-10-06T00:50:46.227Z,18.83
2022-10-06T00:50:56.228Z,18.85
2022-10-06T00:51:06.230Z,18.83
2022-10-06T00:51:16.229Z,18.85
2022-10-06T00:51:26.234Z,18.83
2022-10-06T00:51:36.246Z,18.85
2022-10-06T00:51:46.236Z,18.83
2022-10-06T00:51:56.236Z,18.85
2022-10-06T00:52:06.249Z,18.85
2022-10-06T00:52:16.235Z,18.83
2022-10-06T00:52:26.233Z,18.85
2022-10-06T00:52:36.233Z,18.83
2022-10-06T00:52:46.234Z,18.83
2022-10-06T00:52:56.245Z,18.85
2022-10-06T00:53:06.242Z,18.86
2022-10-06T00:53:16.239Z,18.85
2022-10-06T00:53:26.235Z,18.83
2022-10-06T00:53:36.237Z,18.85
2022-10-06T00:53:46.236Z,18.83
2022-10-06T00:53:56.243Z,18.85
2022-10-06T00:54:06.239Z,18.85
2022-10-06T00:54:16.248Z,18.85
2022-10-06T00:54:26.239Z,18.85
2022-10-06T00:54:36.258Z,18.85
2022-10-06T00:54:46.248Z,18.85
2022-10-06T00:54:56.244Z,18.85
2022-10-06T00:55:06.246Z,18.85
2022-10-06T00:55:16.246Z,18.83
2022-10-06T00:55:26.245Z,18.85
2022-10-06T00:55:36.248Z,18.85
2022-10-06T00:55:46.250Z,18.85
2022-10-06T00:55:56.251Z,18.85
2022-10-06T00:56:06.253Z,18.85
2022-10-06T00:56:16.252Z,18.85
2022-10-06T00:56:26.254Z,18.85
2022-10-06T00:56:36.258Z,18.86
2022-10-06T00:56:46.249Z,18.86
2022-10-06T00:56:56.251Z,18.85
2022-10-06T00:57:06.282Z,18.86
2022-10-06T00:57:16.258Z,18.85
2022-10-06T00:57:26.262Z,18.86
2022-10-06T00:57:36.255Z,18.85
2022-10-06T00:57:46.255Z,18.83
2022-10-06T00:57:56.256Z,18.86
2022-10-06T00:58:06.260Z,18.85
2022-10-06T00:58:16.261Z,18.86
2022-10-06T00:58:26.777Z,18.86
2022-10-06T00:58:36.260Z,18.85
2022-10-06T00:58:46.262Z,18.86
2022-10-06T00:58:56.262Z,18.86
2022-10-06T00:59:06.264Z,18.86
2022-10-06T00:59:16.267Z,18.85
2022-10-06T00:59:26.265Z,18.85
2022-10-06T00:59:36.276Z,18.83
2022-10-06T00:59:46.266Z,18.86
2022-10-06T00:59:56.266Z,18.85
2022-10-06T01:00:06.267Z,18.85
2022-10-06T01:00:16.267Z,18.86
2022-10-06T01:00:26.268Z,18.85
2022-10-06T01:00:36.267Z,18.85
2022-10-06T01:00:46.266Z,18.85
2022-10-06T01:00:56.274Z,18.85
2022-10-06T01:01:06.296Z,18.85
2022-10-06T01:01:16.309Z,18.85
2022-10-06T01:01:26.326Z,18.85
2022-10-06T01:01:36.325Z,18.85
2022-10-06T01:01:46.338Z,18.86
2022-10-06T01:01:56.321Z,18.85
2022-10-06T01:02:06.285Z,18.86
2022-10-06T01:02:16.334Z,18.86
2022-10-06T01:02:26.352Z,18.86
2022-10-06T01:02:36.355Z,18.88
2022-10-06T01:02:46.338Z,18.85
2022-10-06T01:02:56.311Z,18.85
2022-10-06T01:03:06.313Z,18.85
2022-10-06T01:03:16.275Z,18.86
2022-10-06T01:03:26.276Z,18.85
2022-10-06T01:03:36.278Z,18.85
2022-10-06T01:03:46.278Z,18.83
2022-10-06T01:03:56.282Z,18.85
2022-10-06T01:04:06.280Z,18.85
2022-10-06T01:04:16.284Z,18.86
2022-10-06T01:04:26.283Z,18.86
2022-10-06T01:04:36.281Z,18.86
2022-10-06T01:04:46.285Z,18.85
2022-10-06T01:04:56.285Z,18.85
2022-10-06T01:05:06.283Z,18.85
2022-10-06T01:05:16.288Z,18.85
2022-10-06T01:05:26.283Z,18.86
2022-10-06T01:05:36.285Z,18.83
2022-10-06T01:05:46.283Z,18.83
2022-10-06T01:05:56.286Z,18.85
2022-10-06T01:06:06.287Z,18.85
2022-10-06T01:06:16.289Z,18.85
2022-10-06T01:06:26.286Z,18.85
2022-10-06T01:06:36.286Z,18.85
2022-10-06T01:06:46.287Z,18.83
2022-10-06T01:06:56.287Z,18.85
2022-10-06T01:07:06.334Z,18.85
2022-10-06T01:07:16.294Z,18.85
2022-10-06T01:07:26.293Z,18.83
2022-10-06T01:07:36.293Z,18.83
2022-10-06T01:07:46.294Z,18.85
2022-10-06T01:07:56.304Z,18.83
2022-10-06T01:08:06.306Z,18.81
2022-10-06T01:08:16.298Z,18.83
2022-10-06T01:08:26.682Z,18.83
2022-10-06T01:08:36.293Z,18.85
2022-10-06T01:08:46.294Z,18.83
2022-10-06T01:08:56.304Z,18.83
2022-10-06T01:09:06.299Z,18.83
2022-10-06T01:09:16.295Z,18.85
2022-10-06T01:09:26.301Z,18.83
2022-10-06T01:09:36.297Z,18.83
2022-10-06T01:09:46.299Z,18.81
2022-10-06T01:09:56.306Z,18.83
2022-10-06T01:10:06.303Z,18.83
2022-10-06T01:10:16.302Z,18.83
2022-10-06T01:10:26.309Z,18.83
2022-10-06T01:10:36.305Z,18.85
2022-10-06T01:10:46.303Z,18.83
2022-10-06T01:10:56.305Z,18.83
2022-10-06T01:11:06.308Z,18.85
2022-10-06T01:11:16.314Z,18.85
2022-10-06T01:11:26.310Z,18.83
2022-10-06T01:11:36.309Z,18.81
2022-10-06T01:11:46.313Z,18.83
2022-10-06T01:11:56.313Z,18.81
2022-10-06T01:12:06.312Z,18.81
2022-10-06T01:12:16.314Z,18.83
2022-10-06T01:12:26.318Z,18.85
2022-10-06T01:12:36.316Z,18.83
2022-10-06T01:12:46.318Z,18.83
2022-10-06T01:12:56.314Z,18.81
2022-10-06T01:13:06.314Z,18.83
2022-10-06T01:13:16.319Z,18.83
2022-10-06T01:13:26.314Z,18.83
2022-10-06T01:13:36.314Z,18.83
2022-10-06T01:13:46.324Z,18.83
2022-10-06T01:13:56.317Z,18.83
2022-10-06T01:14:06.321Z,18.83
2022-10-06T01:14:16.325Z,18.85
2022-10-06T01:14:26.321Z,18.85
2022-10-06T01:14:36.321Z,18.83
2022-10-06T01:14:46.321Z,18.85
2022-10-06T01:14:56.323Z,18.83
2022-10-06T01:15:06.323Z,18.81
2022-10-06T01:15:16.324Z,18.83
2022-10-06T01:15:26.326Z,18.85
2022-10-06T01:15:36.411Z,18.83
2022-10-06T01:15:46.353Z,18.83
2022-10-06T01:15:56.397Z,18.85
2022-10-06T01:16:06.491Z,18.83
2022-10-06T01:16:16.386Z,18.83
2022-10-06T01:16:26.336Z,18.85
2022-10-06T01:16:36.336Z,18.85
2022-10-06T01:16:46.329Z,18.85
2022-10-06T01:16:56.329Z,18.85
2022-10-06T01:17:06.344Z,18.83
2022-10-06T01:17:16.332Z,18.85
2022-10-06T01:17:26.335Z,18.85
2022-10-06T01:17:36.332Z,18.83
2022-10-06T01:17:46.330Z,18.85
2022-10-06T01:17:56.334Z,18.85
2022-10-06T01:18:06.333Z,18.85
2022-10-06T01:18:16.333Z,18.85
2022-10-06T01:18:26.795Z,18.85
2022-10-06T01:18:36.333Z,18.85
2022-10-06T01:18:46.335Z,18.86
2022-10-06T01:18:56.335Z,18.85
2022-10-06T01:19:06.334Z,18.85
2022-10-06T01:19:16.337Z,18.85
2022-10-06T01:19:26.345Z,18.85
2022-10-06T01:19:36.337Z,18.85
2022-10-06T01:19:46.342Z,18.86
2022-10-06T01:19:56.348Z,18.85
2022-10-06T01:20:06.343Z,18.85
2022-10-06T01:20:16.344Z,18.86
2022-10-06T01:20:26.346Z,18.85
2022-10-06T01:20:36.342Z,18.86
2022-10-06T01:20:46.344Z,18.86
2022-10-06T01:20:56.344Z,18.86
2022-10-06T01:21:06.344Z,18.85
2022-10-06T01:21:16.349Z,18.86
2022-10-06T01:21:26.344Z,18.85
2022-10-06T01:21:36.348Z,18.85
2022-10-06T01:21:46.350Z,18.86
2022-10-06T01:21:56.353Z,18.86
2022-10-06T01:22:06.378Z,18.86
2022-10-06T01:22:16.352Z,18.86
2022-10-06T01:22:26.358Z,18.85
2022-10-06T01:22:36.356Z,18.85
2022-10-06T01:22:46.379Z,18.85
2022-10-06T01:22:56.357Z,18.85
2022-10-06T01:23:06.357Z,18.86
2022-10-06T01:23:16.357Z,18.85
2022-10-06T01:23:26.360Z,18.86
2022-10-06T01:23:36.363Z,18.85
2022-10-06T01:23:46.359Z,18.86
2022-10-06T01:23:56.360Z,18.85
2022-10-06T01:24:06.359Z,18.85
2022-10-06T01:24:16.363Z,18.85
2022-10-06T01:24:26.360Z,18.85
2022-10-06T01:24:36.362Z,18.85
2022-10-06T01:24:46.367Z,18.86
2022-10-06T01:24:56.362Z,18.85
2022-10-06T01:25:06.363Z,18.85
2022-10-06T01:25:16.378Z,18.85
2022-10-06T01:25:26.374Z,18.86
2022-10-06T01:25:36.364Z,18.86
2022-10-06T01:25:46.369Z,18.85
2022-10-06T01:25:56.366Z,18.85
2022-10-06T01:26:06.370Z,18.85
2022-10-06T01:26:16.371Z,18.85
2022-10-06T01:26:26.389Z,18.86
2022-10-06T01:26:36.372Z,18.85
2022-10-06T01:26:46.372Z,18.86
2022-10-06T01:26:56.371Z,18.86
2022-10-06T01:27:06.384Z,18.85
2022-10-06T01:27:16.370Z,18.86
2022-10-06T01:27:26.372Z,18.85
2022-10-06T01:27:36.373Z,18.85
2022-10-06T01:27:46.371Z,18.86
2022-10-06T01:27:56.445Z,18.86
2022-10-06T01:28:06.422Z,18.85
2022-10-06T01:28:16.381Z,18.85
2022-10-06T01:28:26.819Z,18.85
2022-10-06T01:28:36.418Z,18.85
2022-10-06T01:28:46.394Z,18.85
2022-10-06T01:28:56.375Z,18.85
2022-10-06T01:29:06.383Z,18.86
2022-10-06T01:29:16.381Z,18.86
2022-10-06T01:29:26.382Z,18.85
2022-10-06T01:29:36.383Z,18.85
2022-10-06T01:29:46.383Z,18.86
2022-10-06T01:29:56.385Z,18.86
2022-10-06T01:30:06.395Z,18.86
2022-10-06T01:30:16.385Z,18.86
2022-10-06T01:30:26.387Z,18.86
2022-10-06T01:30:36.390Z,18.85
2022-10-06T01:30:46.502Z,18.86
2022-10-06T01:30:56.548Z,18.86
2022-10-06T01:31:06.464Z,18.86
2022-10-06T01:31:16.456Z,18.85
2022-10-06T01:31:26.480Z,18.85
2022-10-06T01:31:36.413Z,18.86
2022-10-06T01:31:46.392Z,18.85
2022-10-06T01:31:56.392Z,18.86
2022-10-06T01:32:06.403Z,18.85
2022-10-06T01:32:16.392Z,18.86
2022-10-06T01:32:26.391Z,18.86
2022-10-06T01:32:36.392Z,18.85
2022-10-06T01:32:46.403Z,18.85
2022-10-06T01:32:56.391Z,18.85
2022-10-06T01:33:06.395Z,18.86
2022-10-06T01:33:16.398Z,18.85
2022-10-06T01:33:26.405Z,18.85
2022-10-06T01:33:36.398Z,18.85
2022-10-06T01:33:46.400Z,18.86
2022-10-06T01:33:56.397Z,18.86
2022-10-06T01:34:06.399Z,18.85
2022-10-06T01:34:16.402Z,18.86
2022-10-06T01:34:26.401Z,18.86
2022-10-06T01:34:36.405Z,18.85
2022-10-06T01:34:46.407Z,18.85
2022-10-06T01:34:56.403Z,18.86
2022-10-06T01:35:06.429Z,18.85
2022-10-06T01:35:16.405Z,18.85
2022-10-06T01:35:26.404Z,18.85
2022-10-06T01:35:36.394Z,18.85
2022-10-06T01:35:46.405Z,18.86
2022-10-06T01:35:56.407Z,18.86
2022-10-06T01:36:06.410Z,18.85
2022-10-06T01:36:16.406Z,18.86
2022-10-06T01:36:26.417Z,18.86
2022-10-06T01:36:36.408Z,18.85
2022-10-06T01:36:46.412Z,18.85
2022-10-06T01:36:56.410Z,18.85
2022-10-06T01:37:06.446Z,18.86
2022-10-06T01:37:16.410Z,18.86
2022-10-06T01:37:26.414Z,18.86
2022-10-06T01:37:36.412Z,18.85
2022-10-06T01:37:46.413Z,18.86
2022-10-06T01:37:56.418Z,18.85
2022-10-06T01:38:06.415Z,18.85
2022-10-06T01:38:16.417Z,18.85
2022-10-06T01:38:26.847Z,18.88
2022-10-06T01:38:36.416Z,18.85
2022-10-06T01:38:46.416Z,18.86
2022-10-06T01:38:56.419Z,18.86
2022-10-06T01:39:06.448Z,18.86
2022-10-06T01:39:16.424Z,18.85
2022-10-06T01:39:26.421Z,18.86
2022-10-06T01:39:36.425Z,18.86
2022-10-06T01:39:46.425Z,18.86
2022-10-06T01:39:56.430Z,18.85
2022-10-06T01:40:06.424Z,18.86
2022-10-06T01:40:16.426Z,18.86
2022-10-06T01:40:26.427Z,18.85
2022-10-06T01:40:36.430Z,18.85
2022-10-06T01:40:46.440Z,18.85
2022-10-06T01:40:56.443Z,18.85
2022-10-06T01:41:06.434Z,18.85
2022-10-06T01:41:16.435Z,18.83
2022-10-06T01:41:26.436Z,18.85
2022-10-06T01:41:36.438Z,18.86
2022-10-06T01:41:46.441Z,18.85
2022-10-06T01:41:56.437Z,18.83
2022-10-06T01:42:06.442Z,18.85
2022-10-06T01:42:16.441Z,18.85
2022-10-06T01:42:26.442Z,18.86
2022-10-06T01:42:36.438Z,18.85
2022-10-06T01:42:46.440Z,18.85
2022-10-06T01:42:56.441Z,18.85
2022-10-06T01:43:06.444Z,18.83
2022-10-06T01:43:16.442Z,18.85
2022-10-06T01:43:26.440Z,18.85
2022-10-06T01:43:36.441Z,18.85
2022-10-06T01:43:46.444Z,18.83
2022-10-06T01:43:56.442Z,18.85
2022-10-06T01:44:06.444Z,18.86
2022-10-06T01:44:16.445Z,18.86
2022-10-06T01:44:26.445Z,18.83
2022-10-06T01:44:36.452Z,18.86
2022-10-06T01:44:46.442Z,18.85
2022-10-06T01:44:56.451Z,18.86
2022-10-06T01:45:06.452Z,18.86
2022-10-06T01:45:16.447Z,18.85
2022-10-06T01:45:26.453Z,18.85
2022-10-06T01:45:36.443Z,18.85
2022-10-06T01:45:46.447Z,18.85
2022-10-06T01:45:56.590Z,18.86
2022-10-06T01:46:06.492Z,18.88
2022-10-06T01:46:16.507Z,18.86
2022-10-06T01:46:26.492Z,18.86
2022-10-06T01:46:36.526Z,18.85
2022-10-06T01:46:46.527Z,18.85
2022-10-06T01:46:56.451Z,18.85
2022-10-06T01:47:06.506Z,18.85
2022-10-06T01:47:16.453Z,18.85
2022-10-06T01:47:26.450Z,18.85
2022-10-06T01:47:36.454Z,18.86
2022-10-06T01:47:46.454Z,18.85
2022-10-06T01:47:56.452Z,18.86
2022-10-06T01:48:06.454Z,18.85
2022-10-06T01:48:16.459Z,18.85
2022-10-06T01:48:26.983Z,18.85
2022-10-06T01:48:36.467Z,18.85
2022-10-06T01:48:46.455Z,18.85
2022-10-06T01:48:56.456Z,18.86
2022-10-06T01:49:06.456Z,18.86
2022-10-06T01:49:16.459Z,18.85
2022-10-06T01:49:26.471Z,18.86
2022-10-06T01:49:36.462Z,18.85
2022-10-06T01:49:46.466Z,18.85
2022-10-06T01:49:56.459Z,18.86
2022-10-06T01:50:06.462Z,18.85
2022-10-06T01:50:16.471Z,18.85
2022-10-06T01:50:26.470Z,18.85
2022-10-06T01:50:36.467Z,18.85
2022-10-06T01:50:46.465Z,18.85
2022-10-06T01:50:56.471Z,18.86
2022-10-06T01:51:06.486Z,18.85
2022-10-06T01:51:16.470Z,18.85
2022-10-06T01:51:26.468Z,18.85
2022-10-06T01:51:36.469Z,18.85
2022-10-06T01:51:46.472Z,18.85
2022-10-06T01:51:56.474Z,18.85
2022-10-06T01:52:06.482Z,18.85
2022-10-06T01:52:16.474Z,18.85
2022-10-06T01:52:26.475Z,18.85
2022-10-06T01:52:36.475Z,18.83
2022-10-06T01:52:46.478Z,18.85
2022-10-06T01:52:56.474Z,18.85
2022-10-06T01:53:06.483Z,18.85
2022-10-06T01:53:16.476Z,18.85
2022-10-06T01:53:26.480Z,18.85
2022-10-06T01:53:36.478Z,18.83
2022-10-06T01:53:46.478Z,18.86
2022-10-06T01:53:56.481Z,18.85
2022-10-06T01:54:06.479Z,18.83
2022-10-06T01:54:16.484Z,18.86
2022-10-06T01:54:26.484Z,18.86
2022-10-06T01:54:36.483Z,18.85
2022-10-06T01:54:46.485Z,18.85
2022-10-06T01:54:56.513Z,18.83
2022-10-06T01:55:06.484Z,18.85
2022-10-06T01:55:16.483Z,18.85
2022-10-06T01:55:26.489Z,18.86
2022-10-06T01:55:36.494Z,18.85
2022-10-06T01:55:46.493Z,18.85
2022-10-06T01:55:56.490Z,18.85
2022-10-06T01:56:06.491Z,18.86
2022-10-06T01:56:16.489Z,18.83
2022-10-06T01:56:26.492Z,18.85
2022-10-06T01:56:36.492Z,18.86
2022-10-06T01:56:46.493Z,18.85
2022-10-06T01:56:56.494Z,18.85
2022-10-06T01:57:06.518Z,18.85
2022-10-06T01:57:16.496Z,18.85
2022-10-06T01:57:26.496Z,18.85
2022-10-06T01:57:36.500Z,18.85
2022-10-06T01:57:46.499Z,18.85
2022-10-06T01:57:56.501Z,18.85
2022-10-06T01:58:06.501Z,18.85
2022-10-06T01:58:16.500Z,18.85
2022-10-06T01:58:26.902Z,18.85
2022-10-06T01:58:36.506Z,18.85
2022-10-06T01:58:46.510Z,18.85
2022-10-06T01:58:56.503Z,18.85
2022-10-06T01:59:06.505Z,18.85
2022-10-06T01:59:16.514Z,18.85
2022-10-06T01:59:26.508Z,18.85
2022-10-06T01:59:36.506Z,18.86
2022-10-06T01:59:46.509Z,18.85
2022-10-06T01:59:56.513Z,18.85
2022-10-06T02:00:06.516Z,18.83
2022-10-06T02:00:16.515Z,18.83
2022-10-06T02:00:26.511Z,18.83
2022-10-06T02:00:36.514Z,18.81
2022-10-06T02:00:46.519Z,18.85
2022-10-06T02:00:56.524Z,18.83
2022-10-06T02:01:06.520Z,18.81
2022-10-06T02:01:16.567Z,18.83
2022-10-06T02:01:26.558Z,18.85
2022-10-06T02:01:36.596Z,18.83
2022-10-06T02:01:46.684Z,18.81
2022-10-06T02:01:56.558Z,18.85
2022-10-06T02:02:06.610Z,18.83
2022-10-06T02:02:16.527Z,18.81
2022-10-06T02:02:26.522Z,18.81
2022-10-06T02:02:36.522Z,18.83
2022-10-06T02:02:46.547Z,18.81
2022-10-06T02:02:56.521Z,18.81
2022-10-06T02:03:06.521Z,18.83
2022-10-06T02:03:16.529Z,18.81
2022-10-06T02:03:26.527Z,18.83
2022-10-06T02:03:36.527Z,18.83
2022-10-06T02:03:46.535Z,18.83
2022-10-06T02:03:56.527Z,18.83
2022-10-06T02:04:06.571Z,18.83
2022-10-06T02:04:16.648Z,18.80
2022-10-06T02:04:26.565Z,18.83
2022-10-06T02:04:36.527Z,18.80
2022-10-06T02:04:46.547Z,18.83
2022-10-06T02:04:56.535Z,18.80
2022-10-06T02:05:06.531Z,18.80
2022-10-06T02:05:16.531Z,18.81
2022-10-06T02:05:26.639Z,18.80
2022-10-06T02:05:36.532Z,18.80
2022-10-06T02:05:46.536Z,18.81
2022-10-06T02:05:56.560Z,18.80
2022-10-06T02:06:06.594Z,18.80
2022-10-06T02:06:16.602Z,18.80
2022-10-06T02:06:26.558Z,18.80
2022-10-06T02:06:36.606Z,18.81
2022-10-06T02:06:46.638Z,18.80
2022-10-06T02:06:56.542Z,18.81
2022-10-06T02:07:06.586Z,18.80
2022-10-06T02:07:16.544Z,18.80
2022-10-06T02:07:26.541Z,18.80
2022-10-06T02:07:36.543Z,18.80
2022-10-06T02:07:46.549Z,18.78
2022-10-06T02:07:56.546Z,18.80
2022-10-06T02:08:06.547Z,18.80
2022-10-06T02:08:16.549Z,18.80
2022-10-06T02:08:26.887Z,18.78
2022-10-06T02:08:36.552Z,18.78
2022-10-06T02:08:46.548Z,18.80